Terminal Aerodrome Forecast
Issued by NWS Grand Forks, ND

Home | Current Version | Previous Version | Graphics & Text | Print | Product List | Glossary On
Versions: 1 2 3 4 5 6 7 8 9 10 11 12 13
000
FTUS43 KFGF 052300
TAFFAR
TAF
KFAR 052332Z 0600/0624 19015G25KT P6SM SCT250
     FM060100 19012KT P6SM SCT250
     FM061000 28012KT P6SM SCT250
     FM061900 21009KT P6SM BKN120=

USA.gov is the U.S. government's official web portal to all federal, state and local government web resources and services.